createdAt,value
2023-09-07T00:00:39.531Z,5.3
2023-09-07T00:01:38.789Z,4.8
2023-09-07T00:02:40.195Z,4.7
2023-09-07T00:03:38.359Z,3.8
2023-09-07T00:04:38.185Z,4.2
2023-09-07T00:05:38.751Z,4.4
2023-09-07T00:06:39.805Z,5.1
2023-09-07T00:07:38.463Z,3.6
2023-09-07T00:08:38.193Z,4.3
2023-09-07T00:09:38.905Z,4.0
2023-09-07T00:10:38.846Z,4.9
2023-09-07T00:11:38.565Z,5.0
2023-09-07T00:12:38.352Z,4.1
2023-09-07T00:13:38.319Z,5.3
2023-09-07T00:14:38.756Z,4.2
2023-09-07T00:15:38.525Z,5.4
2023-09-07T00:16:38.379Z,5.1
2023-09-07T00:17:38.210Z,3.9
2023-09-07T00:18:38.842Z,4.7
2023-09-07T00:19:38.636Z,4.4
2023-09-07T00:20:38.457Z,4.5
2023-09-07T00:21:38.310Z,5.5
2023-09-07T00:22:38.386Z,5.2
2023-09-07T00:23:40.027Z,5.2
2023-09-07T00:24:38.546Z,4.9
2023-09-07T00:25:38.399Z,4.7
2023-09-07T00:26:38.114Z,4.6
2023-09-07T00:27:38.910Z,5.6
2023-09-07T00:28:38.802Z,4.6
2023-09-07T00:29:38.872Z,4.6
2023-09-07T00:30:38.432Z,4.6
2023-09-07T00:31:38.101Z,5.2
2023-09-07T00:32:39.095Z,5.3
2023-09-07T00:33:38.466Z,4.8
2023-09-07T00:34:38.298Z,4.2
2023-09-07T00:35:38.083Z,4.5
2023-09-07T00:36:38.830Z,4.1
2023-09-07T00:37:38.750Z,4.7
2023-09-07T00:38:38.425Z,4.5
2023-09-07T00:39:38.246Z,5.7
2023-09-07T00:40:38.073Z,3.8
2023-09-07T00:41:38.676Z,4.6
2023-09-07T00:42:38.661Z,4.1
2023-09-07T00:43:38.313Z,5.0
2023-09-07T00:44:38.044Z,4.4
2023-09-07T00:45:39.232Z,5.6
2023-09-07T00:46:38.581Z,5.0
2023-09-07T00:47:38.496Z,4.2
2023-09-07T00:48:38.576Z,3.9
2023-09-07T00:49:38.834Z,4.7
2023-09-07T00:50:39.058Z,4.5
2023-09-07T00:51:38.569Z,4.6
2023-09-07T00:52:38.306Z,4.9
2023-09-07T00:53:38.521Z,5.6
2023-09-07T00:54:38.336Z,3.0
2023-09-07T00:55:38.258Z,4.0
2023-09-07T00:56:38.868Z,5.2
2023-09-07T00:57:38.828Z,4.1
2023-09-07T00:58:38.460Z,3.7
2023-09-07T00:59:38.159Z,4.3
2023-09-07T01:00:39.810Z,5.9
2023-09-07T01:01:38.692Z,4.4
2023-09-07T01:02:38.652Z,5.3
2023-09-07T01:03:38.314Z,4.7
2023-09-07T01:04:38.058Z,4.3
2023-09-07T01:05:43.462Z,5.1
2023-09-07T01:06:43.367Z,4.1
2023-09-07T01:07:42.973Z,4.9
2023-09-07T01:08:41.085Z,4.0
2023-09-07T01:09:40.079Z,5.6
2023-09-07T01:10:38.154Z,4.9
2023-09-07T01:11:38.847Z,5.0
2023-09-07T01:12:39.731Z,4.4
2023-09-07T01:13:38.409Z,3.9
2023-09-07T01:14:38.177Z,4.4
2023-09-07T01:15:39.016Z,4.3
2023-09-07T01:16:38.822Z,4.8
2023-09-07T01:17:38.892Z,4.5
2023-09-07T01:18:39.034Z,3.6
2023-09-07T01:19:38.417Z,4.5
2023-09-07T01:20:40.854Z,4.6
2023-09-07T01:21:38.930Z,4.1
2023-09-07T01:22:39.664Z,4.3
2023-09-07T01:23:40.703Z,4.8
2023-09-07T01:24:39.071Z,4.4
2023-09-07T01:25:39.380Z,4.4
2023-09-07T01:26:38.847Z,4.5
2023-09-07T01:27:38.704Z,4.8
2023-09-07T01:28:38.469Z,3.9
2023-09-07T01:29:38.284Z,3.4
2023-09-07T01:30:38.066Z,3.9
2023-09-07T01:31:39.002Z,3.8
2023-09-07T01:32:38.589Z,4.4
2023-09-07T01:33:38.301Z,4.1
2023-09-07T01:34:40.795Z,4.2
2023-09-07T01:35:39.515Z,3.8
2023-09-07T01:36:38.626Z,4.8
2023-09-07T01:37:38.544Z,4.4
2023-09-07T01:38:38.238Z,4.3
2023-09-07T01:39:38.078Z,3.9
2023-09-07T01:40:38.732Z,3.9
2023-09-07T01:41:38.475Z,4.4
2023-09-07T01:42:38.289Z,4.5
2023-09-07T01:43:38.146Z,4.0
2023-09-07T01:44:38.708Z,4.0
2023-09-07T01:45:38.579Z,3.7
2023-09-07T01:46:38.448Z,5.5
2023-09-07T01:47:38.419Z,4.7
2023-09-07T01:48:38.902Z,3.0
2023-09-07T01:49:38.674Z,3.8
2023-09-07T01:50:38.425Z,4.9
2023-09-07T01:51:38.231Z,3.1
2023-09-07T01:52:38.982Z,3.9
2023-09-07T01:53:38.736Z,3.8
2023-09-07T01:54:38.538Z,4.4
2023-09-07T01:55:38.385Z,5.2
2023-09-07T01:56:38.229Z,4.1
2023-09-07T01:57:38.784Z,3.8
2023-09-07T01:58:38.591Z,4.0
2023-09-07T01:59:38.429Z,4.0
2023-09-07T02:00:38.347Z,3.2
2023-09-07T02:01:38.900Z,3.4
2023-09-07T02:02:38.741Z,3.5
2023-09-07T02:03:38.501Z,4.6
2023-09-07T02:04:38.316Z,3.6
2023-09-07T02:05:38.101Z,5.0
2023-09-07T02:06:38.672Z,4.1
2023-09-07T02:07:38.611Z,3.6
2023-09-07T02:08:38.336Z,3.9
2023-09-07T02:09:38.080Z,5.1
2023-09-07T02:10:39.058Z,3.6
2023-09-07T02:11:38.654Z,4.0
2023-09-07T02:12:38.417Z,4.4
2023-09-07T02:13:38.213Z,5.2
2023-09-07T02:14:38.802Z,3.8
2023-09-07T02:15:38.950Z,3.8
2023-09-07T02:16:38.455Z,4.1
2023-09-07T02:17:38.272Z,4.9
2023-09-07T02:18:38.916Z,4.7
2023-09-07T02:19:38.197Z,4.6
2023-09-07T02:20:38.996Z,4.5
2023-09-07T02:21:38.687Z,4.7
2023-09-07T02:22:38.775Z,4.5
2023-09-07T02:23:38.373Z,3.8
2023-09-07T02:24:38.304Z,5.3
2023-09-07T02:25:38.337Z,4.0
2023-09-07T02:26:38.170Z,3.5
2023-09-07T02:27:38.875Z,4.5
2023-09-07T02:28:38.611Z,3.4
2023-09-07T02:29:38.440Z,3.9
2023-09-07T02:30:38.234Z,3.9
2023-09-07T02:31:40.125Z,4.4
2023-09-07T02:32:47.168Z,5.3
2023-09-07T02:33:38.560Z,2.9
2023-09-07T02:34:56.108Z,3.5
2023-09-07T02:35:57.957Z,4.0
2023-09-07T02:36:38.750Z,3.7
2023-09-07T02:37:38.607Z,5.0
2023-09-07T02:38:38.324Z,3.9
2023-09-07T02:39:38.088Z,3.5
2023-09-07T02:40:42.412Z,4.9
2023-09-07T02:41:38.943Z,3.9
2023-09-07T02:42:38.930Z,4.6
2023-09-07T02:43:38.578Z,3.6
2023-09-07T02:44:38.425Z,3.9
2023-09-07T02:45:38.756Z,4.2
2023-09-07T02:46:38.825Z,3.4
2023-09-07T02:47:39.231Z,4.5
2023-09-07T02:48:38.424Z,4.3
2023-09-07T02:49:38.288Z,3.6
2023-09-07T02:50:38.894Z,4.4
2023-09-07T02:51:38.685Z,3.5
2023-09-07T02:52:39.771Z,4.2
2023-09-07T02:53:38.286Z,5.0
2023-09-07T02:54:38.056Z,4.3
2023-09-07T02:55:39.787Z,5.2
2023-09-07T02:56:38.563Z,3.8
2023-09-07T02:57:38.378Z,4.6
2023-09-07T02:58:38.177Z,4.2
2023-09-07T02:59:38.838Z,3.9
2023-09-07T03:00:41.893Z,4.3
2023-09-07T03:01:39.033Z,4.5
2023-09-07T03:02:38.368Z,3.8
2023-09-07T03:03:38.130Z,3.3
2023-09-07T03:04:38.700Z,5.3
2023-09-07T03:05:41.598Z,4.5
2023-09-07T03:06:38.244Z,3.2
2023-09-07T03:07:38.106Z,3.7
2023-09-07T03:08:39.599Z,4.4
2023-09-07T03:09:38.550Z,3.0
2023-09-07T03:10:38.684Z,4.1
2023-09-07T03:11:38.184Z,4.1
2023-09-07T03:12:38.874Z,4.9
2023-09-07T03:13:38.671Z,3.7
2023-09-07T03:14:38.367Z,4.0
2023-09-07T03:15:38.230Z,3.5
2023-09-07T03:16:38.942Z,3.1
2023-09-07T03:17:38.811Z,3.1
2023-09-07T03:18:38.544Z,4.3
2023-09-07T03:19:38.322Z,3.6
2023-09-07T03:20:38.124Z,4.0
2023-09-07T03:21:38.806Z,3.6
2023-09-07T03:22:38.607Z,3.1
2023-09-07T03:23:38.429Z,4.2
2023-09-07T03:24:38.142Z,3.7
2023-09-07T03:25:38.866Z,3.3
2023-09-07T03:26:38.644Z,3.0
2023-09-07T03:27:38.605Z,4.3
2023-09-07T03:28:38.252Z,4.3
2023-09-07T03:29:38.056Z,4.8
2023-09-07T03:30:38.825Z,3.5
2023-09-07T03:31:38.631Z,3.3
2023-09-07T03:32:38.451Z,4.2
2023-09-07T03:33:38.099Z,3.3
2023-09-07T03:34:38.902Z,3.4
2023-09-07T03:35:38.190Z,4.6
2023-09-07T03:36:38.916Z,3.7
2023-09-07T03:37:38.672Z,4.5
2023-09-07T03:38:38.462Z,3.4
2023-09-07T03:39:38.203Z,3.6
2023-09-07T03:40:38.017Z,4.4
2023-09-07T03:41:38.679Z,3.8
2023-09-07T03:42:38.585Z,4.0
2023-09-07T03:43:38.262Z,3.2
2023-09-07T03:44:38.081Z,3.7
2023-09-07T03:45:38.803Z,4.1
2023-09-07T03:46:38.629Z,4.0
2023-09-07T03:47:38.476Z,3.5
2023-09-07T03:48:39.971Z,3.9
2023-09-07T03:49:38.838Z,2.8
2023-09-07T03:50:38.630Z,4.2
2023-09-07T03:51:38.395Z,3.9
2023-09-07T03:52:38.302Z,4.0
2023-09-07T03:53:38.982Z,4.5
2023-09-07T03:54:38.692Z,4.2
2023-09-07T03:55:41.727Z,4.1
2023-09-07T03:56:38.333Z,4.5
2023-09-07T03:57:38.147Z,3.6
2023-09-07T03:58:38.743Z,3.6
2023-09-07T03:59:38.561Z,3.2
2023-09-07T04:00:41.561Z,4.4
2023-09-07T04:01:38.391Z,3.4
2023-09-07T04:02:39.182Z,3.5
2023-09-07T04:03:38.878Z,4.4
2023-09-07T04:04:38.647Z,3.9
2023-09-07T04:05:38.364Z,3.4
2023-09-07T04:06:38.084Z,4.3
2023-09-07T04:07:38.758Z,3.7
2023-09-07T04:08:38.535Z,4.5
2023-09-07T04:09:38.316Z,4.1
2023-09-07T04:10:38.127Z,4.1
2023-09-07T04:11:38.828Z,3.6
2023-09-07T04:12:38.682Z,3.8
2023-09-07T04:13:38.464Z,3.6
2023-09-07T04:14:38.297Z,3.4
2023-09-07T04:15:44.756Z,3.1
2023-09-07T04:16:39.419Z,3.4
2023-09-07T04:17:38.553Z,3.8
2023-09-07T04:18:38.229Z,4.1
2023-09-07T04:19:38.089Z,3.1
2023-09-07T04:20:39.047Z,3.5
2023-09-07T04:21:38.579Z,2.6
2023-09-07T04:22:39.029Z,3.3
2023-09-07T04:23:38.229Z,4.0
2023-09-07T04:24:38.815Z,3.0
2023-09-07T04:25:38.552Z,3.2
2023-09-07T04:26:38.369Z,3.1
2023-09-07T04:27:38.774Z,3.2
2023-09-07T04:28:38.934Z,3.1
2023-09-07T04:29:38.665Z,3.5
2023-09-07T04:30:39.105Z,3.7
2023-09-07T04:31:38.310Z,4.6
2023-09-07T04:32:38.146Z,3.7
2023-09-07T04:33:38.747Z,3.7
2023-09-07T04:34:38.603Z,3.5
2023-09-07T04:35:38.706Z,4.2
2023-09-07T04:36:38.507Z,3.7
2023-09-07T04:37:38.386Z,3.4
2023-09-07T04:38:38.533Z,3.6
2023-09-07T04:39:38.862Z,3.6
2023-09-07T04:40:38.715Z,2.9
2023-09-07T04:41:38.443Z,4.6
2023-09-07T04:42:38.289Z,4.4
2023-09-07T04:43:39.500Z,3.7
2023-09-07T04:44:38.624Z,3.6
2023-09-07T04:45:43.375Z,3.9
2023-09-07T04:46:38.253Z,3.3
2023-09-07T04:47:38.182Z,4.5
2023-09-07T04:48:39.118Z,3.9
2023-09-07T04:49:38.570Z,3.2
2023-09-07T04:50:38.358Z,3.4
2023-09-07T04:51:38.165Z,3.7
2023-09-07T04:52:38.817Z,3.5
2023-09-07T04:53:39.123Z,4.1
2023-09-07T04:54:38.392Z,3.3
2023-09-07T04:55:38.247Z,3.0
2023-09-07T04:56:39.007Z,3.9
2023-09-07T04:57:38.829Z,4.9
2023-09-07T04:58:38.518Z,3.4
2023-09-07T04:59:38.290Z,5.1
2023-09-07T05:00:38.109Z,3.2
2023-09-07T05:01:38.804Z,3.0
2023-09-07T05:02:38.585Z,4.0
2023-09-07T05:03:38.717Z,3.5
2023-09-07T05:04:38.345Z,3.2
2023-09-07T05:05:39.083Z,2.9
2023-09-07T05:06:38.784Z,2.1
2023-09-07T05:07:38.444Z,3.9
2023-09-07T05:08:38.193Z,3.1
2023-09-07T05:09:38.897Z,3.3
2023-09-07T05:10:38.722Z,3.0
2023-09-07T05:11:38.497Z,3.1
2023-09-07T05:12:38.291Z,3.4
2023-09-07T05:13:38.024Z,3.2
2023-09-07T05:14:38.800Z,3.8
2023-09-07T05:15:43.505Z,3.0
2023-09-07T05:16:38.667Z,2.3
2023-09-07T05:17:38.240Z,2.4
2023-09-07T05:18:38.800Z,3.2
2023-09-07T05:19:38.570Z,4.8
2023-09-07T05:20:38.365Z,3.5
2023-09-07T05:21:38.178Z,3.6
2023-09-07T05:22:38.900Z,2.7
2023-09-07T05:23:38.701Z,3.3
2023-09-07T05:24:38.571Z,2.7
2023-09-07T05:25:48.185Z,2.6
2023-09-07T05:26:38.075Z,3.1
2023-09-07T05:27:39.004Z,3.0
2023-09-07T05:28:40.119Z,2.9
2023-09-07T05:29:38.245Z,2.9
2023-09-07T05:30:38.176Z,2.9
2023-09-07T05:31:38.989Z,2.4
2023-09-07T05:32:38.632Z,3.7
2023-09-07T05:33:38.397Z,3.4
2023-09-07T05:34:38.162Z,3.2
2023-09-07T05:35:38.876Z,3.9
2023-09-07T05:36:38.804Z,3.4
2023-09-07T05:37:38.392Z,4.1
2023-09-07T05:38:38.507Z,3.3
2023-09-07T05:39:38.863Z,3.2
2023-09-07T05:40:42.856Z,3.1
2023-09-07T05:41:38.481Z,3.6
2023-09-07T05:42:38.295Z,2.9
2023-09-07T05:43:38.151Z,3.9
2023-09-07T05:44:38.809Z,4.7
2023-09-07T05:45:41.680Z,4.5
2023-09-07T05:46:38.373Z,5.0
2023-09-07T05:47:38.360Z,4.2
2023-09-07T05:48:38.807Z,4.5
2023-09-07T05:49:38.592Z,3.8
2023-09-07T05:50:38.772Z,3.2
2023-09-07T05:51:38.235Z,2.8
2023-09-07T05:52:38.959Z,3.8
2023-09-07T05:53:39.316Z,3.0
2023-09-07T05:54:38.493Z,4.0
2023-09-07T05:55:38.317Z,3.1
2023-09-07T05:56:38.027Z,3.9
2023-09-07T05:57:38.758Z,3.8
2023-09-07T05:58:38.545Z,3.0
2023-09-07T05:59:38.316Z,3.5
2023-09-07T06:00:38.206Z,3.2
2023-09-07T06:01:39.240Z,2.6
2023-09-07T06:02:38.928Z,3.2
2023-09-07T06:03:38.478Z,2.8
2023-09-07T06:04:38.270Z,3.6
2023-09-07T06:05:38.906Z,2.4
2023-09-07T06:06:38.642Z,2.4
2023-09-07T06:07:38.462Z,2.0
2023-09-07T06:08:38.262Z,2.2
2023-09-07T06:09:38.855Z,3.0
2023-09-07T06:10:38.738Z,2.3
2023-09-07T06:11:38.444Z,3.2
2023-09-07T06:12:38.303Z,2.9
2023-09-07T06:13:38.051Z,3.8
2023-09-07T06:14:38.751Z,2.7
2023-09-07T06:15:38.524Z,2.5
2023-09-07T06:16:38.377Z,3.0
2023-09-07T06:17:38.162Z,2.4
2023-09-07T06:18:38.735Z,2.8
2023-09-07T06:19:38.709Z,3.2
2023-09-07T06:20:38.336Z,3.0
2023-09-07T06:21:38.127Z,3.0
2023-09-07T06:22:38.948Z,4.2
2023-09-07T06:23:38.619Z,2.7
2023-09-07T06:24:38.540Z,2.8
2023-09-07T06:25:38.308Z,2.5
2023-09-07T06:26:38.013Z,3.8
2023-09-07T06:27:39.044Z,2.8
2023-09-07T06:28:38.450Z,2.5
2023-09-07T06:29:38.240Z,3.2
2023-09-07T06:30:38.201Z,3.2
2023-09-07T06:31:39.048Z,4.3
2023-09-07T06:32:38.710Z,5.2
2023-09-07T06:33:38.365Z,4.5
2023-09-07T06:34:38.247Z,3.9
2023-09-07T06:35:38.973Z,6.0
2023-09-07T06:36:47.548Z,4.3
2023-09-07T06:37:38.508Z,4.8
2023-09-07T06:38:38.325Z,4.2
2023-09-07T06:39:39.036Z,4.7
2023-09-07T06:40:38.797Z,4.5
2023-09-07T06:41:38.504Z,5.5
2023-09-07T06:42:38.517Z,6.3
2023-09-07T06:43:38.301Z,6.1
2023-09-07T06:44:38.783Z,5.0
2023-09-07T06:45:38.585Z,3.6
2023-09-07T06:46:38.426Z,6.2
2023-09-07T06:47:38.348Z,6.1
2023-09-07T06:48:38.858Z,5.1
2023-09-07T06:49:38.790Z,5.1
2023-09-07T06:50:38.801Z,5.5
2023-09-07T06:51:38.307Z,6.8
2023-09-07T06:52:38.140Z,8.1
2023-09-07T06:53:55.919Z,5.2
2023-09-07T06:54:38.548Z,5.5
2023-09-07T06:55:38.532Z,7.2
2023-09-07T06:56:38.115Z,7.1
2023-09-07T06:57:38.900Z,8.4
2023-09-07T06:58:38.602Z,6.4
2023-09-07T06:59:38.404Z,8.2
2023-09-07T07:00:38.302Z,5.9
2023-09-07T07:01:38.218Z,7.8
2023-09-07T07:02:38.863Z,7.8
2023-09-07T07:03:38.243Z,7.4
2023-09-07T07:04:38.878Z,8.4
2023-09-07T07:05:38.566Z,8.1
2023-09-07T07:06:38.559Z,6.7
2023-09-07T07:07:38.736Z,6.5
2023-09-07T07:08:38.949Z,8.5
2023-09-07T07:09:38.697Z,7.3
2023-09-07T07:10:38.602Z,6.8
2023-09-07T07:11:38.300Z,7.5
2023-09-07T07:12:38.688Z,8.4
2023-09-07T07:13:38.502Z,8.7
2023-09-07T07:14:38.160Z,7.6
2023-09-07T07:15:38.801Z,8.4
2023-09-07T07:16:38.649Z,6.3
2023-09-07T07:17:38.592Z,8.9
2023-09-07T07:18:38.591Z,7.8
2023-09-07T07:19:38.502Z,10.4
2023-09-07T07:20:38.936Z,9.0
2023-09-07T07:21:38.417Z,7.9
2023-09-07T07:22:38.377Z,8.9
2023-09-07T07:23:38.494Z,9.4
2023-09-07T07:24:38.796Z,8.9
2023-09-07T07:25:38.495Z,8.0
2023-09-07T07:26:38.257Z,8.0
2023-09-07T07:27:38.133Z,7.5
2023-09-07T07:28:38.343Z,8.1
2023-09-07T07:29:38.220Z,7.7
2023-09-07T07:30:39.245Z,7.7
2023-09-07T07:31:39.042Z,9.0
2023-09-07T07:32:38.586Z,9.0
2023-09-07T07:33:38.379Z,8.4
2023-09-07T07:34:38.905Z,10.0
2023-09-07T07:35:38.772Z,8.8
2023-09-07T07:36:38.420Z,9.3
2023-09-07T07:37:38.732Z,11.0
2023-09-07T07:38:38.518Z,9.8
2023-09-07T07:39:38.313Z,9.1
2023-09-07T07:40:38.140Z,8.7
2023-09-07T07:41:40.780Z,9.4
2023-09-07T07:42:38.626Z,8.7
2023-09-07T07:43:38.392Z,9.2
2023-09-07T07:44:38.142Z,9.0
2023-09-07T07:45:38.416Z,10.7
2023-09-07T07:46:38.299Z,7.9
2023-09-07T07:47:40.044Z,7.9
2023-09-07T07:48:38.731Z,8.2
2023-09-07T07:49:38.472Z,8.9
2023-09-07T07:50:38.715Z,8.6
2023-09-07T07:51:38.534Z,9.4
2023-09-07T07:52:38.677Z,9.4
2023-09-07T07:53:38.271Z,7.3
2023-09-07T07:54:38.768Z,8.1
2023-09-07T07:55:38.707Z,8.6
2023-09-07T07:56:39.104Z,7.9
2023-09-07T07:57:38.542Z,8.8
2023-09-07T07:58:38.953Z,7.8
2023-09-07T07:59:38.740Z,8.9
2023-09-07T08:00:39.055Z,7.0
2023-09-07T08:01:38.418Z,8.0
2023-09-07T08:02:38.266Z,8.8
2023-09-07T08:03:38.846Z,9.8
2023-09-07T08:04:38.672Z,7.7
2023-09-07T08:05:38.388Z,7.8
2023-09-07T08:06:38.195Z,6.4
2023-09-07T08:07:39.068Z,9.8
2023-09-07T08:08:41.243Z,6.6
2023-09-07T08:09:38.515Z,7.5
2023-09-07T08:10:38.380Z,8.1
2023-09-07T08:11:38.552Z,8.1
2023-09-07T08:12:38.377Z,5.6
2023-09-07T08:13:38.258Z,8.1
2023-09-07T08:14:38.860Z,7.0
2023-09-07T08:15:38.597Z,7.5
2023-09-07T08:16:38.519Z,6.6
2023-09-07T08:17:38.338Z,10.0
2023-09-07T08:18:39.115Z,6.4
2023-09-07T08:19:38.710Z,6.7
2023-09-07T08:20:38.682Z,6.8
2023-09-07T08:21:38.288Z,7.7
2023-09-07T08:22:38.190Z,7.0
2023-09-07T08:23:38.773Z,7.4
2023-09-07T08:24:38.711Z,8.1
2023-09-07T08:25:38.456Z,7.1
2023-09-07T08:26:40.456Z,6.8
2023-09-07T08:27:42.515Z,6.3
2023-09-07T08:28:38.706Z,7.5
2023-09-07T08:29:39.828Z,6.4
2023-09-07T08:30:38.372Z,6.7
2023-09-07T08:31:38.437Z,7.9
2023-09-07T08:32:38.869Z,6.6
2023-09-07T08:33:38.588Z,5.8
2023-09-07T08:34:38.407Z,6.7
2023-09-07T08:35:38.185Z,6.6
2023-09-07T08:36:38.328Z,8.0
2023-09-07T08:37:38.234Z,6.6
2023-09-07T08:38:39.070Z,7.0
2023-09-07T08:39:38.184Z,6.9
2023-09-07T08:40:39.176Z,6.4
2023-09-07T08:41:54.352Z,5.8
2023-09-07T08:42:39.098Z,6.0
2023-09-07T08:43:43.281Z,6.5
2023-09-07T08:44:39.542Z,7.3
2023-09-07T08:45:42.073Z,6.5
2023-09-07T08:46:38.597Z,6.0
2023-09-07T08:47:39.084Z,6.6
2023-09-07T08:48:38.527Z,5.4
2023-09-07T08:49:39.648Z,7.3
2023-09-07T08:50:39.118Z,6.3
2023-09-07T08:51:39.028Z,6.5
2023-09-07T08:52:38.300Z,7.4
2023-09-07T08:53:39.497Z,6.1
2023-09-07T08:54:38.941Z,7.4
2023-09-07T08:55:38.456Z,5.9
2023-09-07T08:56:38.363Z,7.4
2023-09-07T08:57:38.993Z,7.3
2023-09-07T08:58:38.382Z,5.7
2023-09-07T08:59:38.178Z,6.1
2023-09-07T09:00:38.867Z,7.1
2023-09-07T09:01:39.621Z,5.7
2023-09-07T09:02:38.608Z,5.7
2023-09-07T09:03:38.410Z,7.0
2023-09-07T09:04:39.018Z,7.3
2023-09-07T09:05:39.321Z,7.6
2023-09-07T09:06:38.426Z,6.5
2023-09-07T09:07:38.709Z,6.6
2023-09-07T09:08:42.080Z,7.3
2023-09-07T09:09:38.336Z,5.9
2023-09-07T09:10:39.224Z,6.9
2023-09-07T09:11:38.926Z,6.7
2023-09-07T09:12:47.258Z,6.8
2023-09-07T09:13:39.892Z,6.1
2023-09-07T09:14:41.869Z,7.4
2023-09-07T09:15:38.099Z,6.9
2023-09-07T09:16:38.254Z,7.4
2023-09-07T09:17:38.660Z,6.4
2023-09-07T09:18:38.508Z,6.7
2023-09-07T09:19:38.219Z,5.2
2023-09-07T09:20:38.790Z,6.3
2023-09-07T09:21:38.687Z,7.8
2023-09-07T09:22:38.353Z,5.2
2023-09-07T09:23:39.289Z,6.7
2023-09-07T09:24:38.946Z,6.4
2023-09-07T09:25:40.657Z,5.8
2023-09-07T09:26:38.504Z,5.2
2023-09-07T09:27:38.340Z,5.1
2023-09-07T09:28:38.148Z,5.7
2023-09-07T09:29:38.809Z,5.6
2023-09-07T09:30:38.629Z,8.8
2023-09-07T09:31:38.495Z,4.8
2023-09-07T09:32:38.437Z,5.6
2023-09-07T09:33:39.349Z,6.5
2023-09-07T09:34:38.840Z,6.8
2023-09-07T09:35:38.523Z,6.4
2023-09-07T09:36:40.555Z,6.1
2023-09-07T09:37:47.141Z,5.1
2023-09-07T09:38:38.749Z,6.0
2023-09-07T09:39:38.770Z,7.4
2023-09-07T09:40:38.348Z,6.5
2023-09-07T09:41:38.395Z,5.5
2023-09-07T09:42:39.486Z,6.5
2023-09-07T09:43:38.996Z,7.4
2023-09-07T09:44:39.136Z,7.9
2023-09-07T09:45:39.066Z,6.6
2023-09-07T09:46:39.084Z,6.1
2023-09-07T09:47:39.007Z,7.0
2023-09-07T09:48:38.986Z,7.9
2023-09-07T09:49:39.673Z,8.6
2023-09-07T09:50:39.604Z,9.8
2023-09-07T09:51:39.415Z,10.6
2023-09-07T09:52:38.734Z,8.9
2023-09-07T09:53:38.943Z,9.5
2023-09-07T09:54:38.581Z,9.8
2023-09-07T09:55:38.609Z,8.8
2023-09-07T09:56:38.302Z,7.2
2023-09-07T09:57:38.168Z,10.1
2023-09-07T09:58:39.115Z,8.8
2023-09-07T09:59:38.202Z,8.8
2023-09-07T10:00:40.620Z,8.2
2023-09-07T10:01:41.038Z,8.6
2023-09-07T10:02:39.646Z,7.7
2023-09-07T10:03:40.268Z,7.6
2023-09-07T10:04:38.275Z,8.1
2023-09-07T10:05:39.003Z,6.3
2023-09-07T10:06:38.866Z,9.4
2023-09-07T10:07:45.339Z,8.5
2023-09-07T10:08:38.721Z,7.6
2023-09-07T10:09:38.828Z,8.3
2023-09-07T10:10:38.629Z,7.5
2023-09-07T10:11:39.180Z,7.6
2023-09-07T10:12:46.599Z,7.2
2023-09-07T10:13:38.528Z,7.3
2023-09-07T10:14:39.159Z,8.4
2023-09-07T10:15:38.534Z,6.6
2023-09-07T10:16:43.625Z,7.5
2023-09-07T10:17:38.185Z,6.6
2023-09-07T10:18:38.893Z,7.4
2023-09-07T10:19:38.325Z,8.0
2023-09-07T10:20:48.632Z,6.9
2023-09-07T10:21:40.120Z,7.7
2023-09-07T10:22:38.432Z,7.1
2023-09-07T10:23:38.906Z,6.9
2023-09-07T10:24:38.994Z,7.9
2023-09-07T10:25:40.111Z,6.4
2023-09-07T10:26:38.515Z,7.5
2023-09-07T10:27:38.344Z,7.1
2023-09-07T10:28:38.749Z,8.2
2023-09-07T10:29:45.297Z,6.3
2023-09-07T10:30:38.278Z,8.3
2023-09-07T10:31:53.425Z,7.1
2023-09-07T10:32:38.923Z,7.0
2023-09-07T10:33:38.670Z,6.7
2023-09-07T10:34:39.258Z,6.0
2023-09-07T10:35:39.000Z,7.3
2023-09-07T10:36:38.467Z,6.7
2023-09-07T10:37:39.270Z,7.1
2023-09-07T10:38:38.259Z,5.1
2023-09-07T10:39:42.777Z,5.9
2023-09-07T10:40:39.677Z,8.2
2023-09-07T10:41:44.696Z,7.0
2023-09-07T10:42:38.745Z,7.1
2023-09-07T10:43:43.367Z,6.1
2023-09-07T10:44:38.529Z,6.0
2023-09-07T10:45:38.350Z,6.8
2023-09-07T10:46:38.932Z,6.0
2023-09-07T10:47:44.471Z,6.0
2023-09-07T10:48:38.389Z,5.5
2023-09-07T10:49:38.317Z,6.5
2023-09-07T10:50:45.299Z,6.0
2023-09-07T10:51:45.380Z,8.0
2023-09-07T10:52:38.984Z,5.9
2023-09-07T10:53:38.273Z,6.3
2023-09-07T10:54:38.131Z,6.7
2023-09-07T10:55:38.815Z,6.8
2023-09-07T10:56:38.584Z,6.8
2023-09-07T10:57:41.807Z,6.2
2023-09-07T10:58:38.859Z,5.8
2023-09-07T10:59:44.001Z,5.8
2023-09-07T11:00:38.633Z,4.9
2023-09-07T11:01:38.535Z,5.8
2023-09-07T11:02:38.714Z,7.1
2023-09-07T11:03:39.029Z,6.7
2023-09-07T11:04:38.932Z,6.4
2023-09-07T11:05:38.724Z,6.3
2023-09-07T11:06:39.865Z,6.1
2023-09-07T11:07:38.186Z,5.9
2023-09-07T11:08:38.457Z,7.2
2023-09-07T11:09:41.301Z,5.4
2023-09-07T11:10:38.948Z,4.9
2023-09-07T11:11:38.602Z,5.9
2023-09-07T11:12:38.845Z,7.3
2023-09-07T11:13:38.321Z,5.9
2023-09-07T11:14:39.462Z,6.3
2023-09-07T11:15:38.313Z,5.8
2023-09-07T11:16:40.889Z,6.1
2023-09-07T11:17:38.769Z,6.2
2023-09-07T11:18:39.976Z,6.6
2023-09-07T11:19:38.304Z,5.3
2023-09-07T11:20:38.576Z,6.3
2023-09-07T11:21:40.104Z,6.5
2023-09-07T11:22:43.775Z,6.7
2023-09-07T11:23:38.315Z,6.7
2023-09-07T11:24:38.236Z,5.3
2023-09-07T11:25:38.722Z,5.8
2023-09-07T11:26:44.700Z,7.0
2023-09-07T11:27:40.091Z,6.5
2023-09-07T11:28:38.725Z,6.9
2023-09-07T11:29:38.473Z,6.1
2023-09-07T11:30:43.283Z,6.2
2023-09-07T11:31:38.474Z,5.1
2023-09-07T11:32:38.878Z,6.0
2023-09-07T11:33:38.542Z,6.5
2023-09-07T11:34:50.893Z,5.4
2023-09-07T11:35:38.285Z,6.8
2023-09-07T11:36:39.778Z,7.4
2023-09-07T11:37:38.833Z,6.6
2023-09-07T11:38:38.557Z,7.6
2023-09-07T11:39:38.351Z,6.7
2023-09-07T11:40:38.267Z,7.4
2023-09-07T11:41:42.147Z,5.3
2023-09-07T11:42:38.922Z,5.9
2023-09-07T11:43:38.562Z,4.5
2023-09-07T11:44:38.174Z,6.0
2023-09-07T11:45:39.986Z,6.6
2023-09-07T11:46:38.862Z,5.2
2023-09-07T11:47:38.534Z,6.4
2023-09-07T11:48:38.200Z,5.8
2023-09-07T11:49:38.887Z,5.7
2023-09-07T11:50:39.495Z,5.8
2023-09-07T11:51:38.606Z,5.1
2023-09-07T11:52:38.324Z,5.1
2023-09-07T11:53:38.434Z,5.8
2023-09-07T11:54:38.794Z,5.6
2023-09-07T11:55:38.705Z,5.8
2023-09-07T11:56:38.389Z,5.5
2023-09-07T11:57:38.139Z,8.0
2023-09-07T11:58:38.884Z,5.7
2023-09-07T11:59:52.289Z,6.5
2023-09-07T12:00:38.466Z,4.4
2023-09-07T12:01:38.326Z,6.7
2023-09-07T12:02:39.363Z,5.6
2023-09-07T12:03:38.836Z,6.1
2023-09-07T12:04:41.415Z,4.6
2023-09-07T12:05:38.553Z,6.3
2023-09-07T12:06:38.193Z,7.4
2023-09-07T12:07:38.829Z,5.9
2023-09-07T12:08:38.551Z,5.9
2023-09-07T12:09:38.484Z,5.3
2023-09-07T12:10:38.250Z,5.6
2023-09-07T12:11:39.769Z,5.7
2023-09-07T12:12:38.911Z,6.4
2023-09-07T12:13:38.504Z,5.7
2023-09-07T12:14:38.280Z,5.7
2023-09-07T12:15:38.258Z,7.3
2023-09-07T12:16:38.910Z,6.4
2023-09-07T12:17:38.752Z,5.4
2023-09-07T12:18:38.396Z,5.7
2023-09-07T12:19:38.110Z,6.9
2023-09-07T12:20:38.922Z,6.1
2023-09-07T12:21:38.626Z,5.8
2023-09-07T12:22:38.474Z,5.6
2023-09-07T12:23:38.234Z,5.3
2023-09-07T12:24:38.901Z,5.2
2023-09-07T12:25:38.779Z,5.2
2023-09-07T12:26:38.715Z,5.9
2023-09-07T12:27:52.561Z,5.9
2023-09-07T12:28:38.559Z,5.4
2023-09-07T12:29:38.313Z,6.2
2023-09-07T12:30:38.380Z,6.6
2023-09-07T12:31:38.875Z,6.4
2023-09-07T12:32:41.764Z,7.6
2023-09-07T12:33:38.542Z,6.7
2023-09-07T12:34:38.752Z,7.3
2023-09-07T12:35:38.517Z,7.5
2023-09-07T12:36:38.321Z,7.8
2023-09-07T12:37:38.175Z,7.5
2023-09-07T12:38:39.052Z,6.1
2023-09-07T12:39:38.562Z,6.5
2023-09-07T12:40:38.386Z,6.4
2023-09-07T12:41:38.249Z,6.3
2023-09-07T12:42:40.013Z,5.6
2023-09-07T12:43:38.576Z,5.2
2023-09-07T12:44:38.431Z,7.9
2023-09-07T12:45:38.653Z,6.2
2023-09-07T12:46:38.898Z,6.5
2023-09-07T12:47:39.323Z,4.8
2023-09-07T12:48:38.502Z,5.1
2023-09-07T12:49:38.321Z,5.5
2023-09-07T12:50:38.446Z,6.1
2023-09-07T12:51:38.730Z,7.3
2023-09-07T12:52:38.671Z,6.5
2023-09-07T12:53:38.420Z,6.0
2023-09-07T12:54:38.161Z,7.2
2023-09-07T12:55:38.889Z,7.8
2023-09-07T12:56:39.496Z,7.1
2023-09-07T12:57:38.381Z,6.1
2023-09-07T12:58:38.250Z,8.0
2023-09-07T12:59:38.953Z,8.5
2023-09-07T13:00:38.842Z,8.5
2023-09-07T13:01:38.620Z,8.2
2023-09-07T13:02:38.990Z,9.4
2023-09-07T13:03:38.710Z,7.7
2023-09-07T13:04:38.319Z,7.7
2023-09-07T13:05:38.377Z,8.5
2023-09-07T13:06:39.144Z,8.1
2023-09-07T13:07:38.698Z,8.4
2023-09-07T13:08:39.100Z,9.4
2023-09-07T13:09:38.733Z,8.8
2023-09-07T13:10:38.604Z,7.7
2023-09-07T13:11:38.284Z,6.8
2023-09-07T13:12:38.525Z,11.3
2023-09-07T13:13:40.052Z,7.2
2023-09-07T13:14:38.134Z,7.7
2023-09-07T13:15:39.015Z,8.4
2023-09-07T13:16:38.618Z,7.8
2023-09-07T13:17:38.527Z,7.5
2023-09-07T13:18:38.199Z,8.5
2023-09-07T13:19:38.963Z,8.3
2023-09-07T13:20:40.105Z,8.1
2023-09-07T13:21:38.175Z,7.8
2023-09-07T13:22:40.668Z,9.0
2023-09-07T13:23:38.487Z,8.2
2023-09-07T13:24:38.294Z,8.5
2023-09-07T13:25:38.174Z,8.2
2023-09-07T13:26:39.834Z,8.0
2023-09-07T13:27:38.167Z,9.2
2023-09-07T13:28:38.937Z,7.8
2023-09-07T13:29:38.783Z,8.8
2023-09-07T13:30:39.831Z,8.7
2023-09-07T13:31:38.456Z,8.6
2023-09-07T13:32:38.489Z,10.2
2023-09-07T13:33:41.725Z,8.8
2023-09-07T13:34:38.553Z,8.9
2023-09-07T13:35:38.702Z,9.3
2023-09-07T13:36:38.628Z,7.3
2023-09-07T13:37:38.849Z,9.0
2023-09-07T13:38:38.796Z,7.5
2023-09-07T13:39:38.510Z,9.1
2023-09-07T13:40:38.617Z,8.2
2023-09-07T13:41:42.142Z,9.4
2023-09-07T13:42:38.825Z,9.2
2023-09-07T13:43:38.675Z,9.0
2023-09-07T13:44:38.360Z,9.2
2023-09-07T13:45:38.594Z,9.6